EGKB/BQH METAR and TAF weather

Enter ICAO airport designator
Station Type Date Time Source
EGKB METAR 2019/10/21 21:20 UTC NOAA

EGKB 212120Z 33007KT 9999 -RA BKN010 09/08 Q1022


Station Type Date Time Source
EGKB Decoded METAR 2019/10/21 21:20 UTC NOAA

Biggin Hill , United Kingdom (EGKB) 51-19N 000-02E
Oct 21, 2019 - 05:20 PM EDT / 2019.10.21 2120 UTC
Wind: from the NNW (330 degrees) at 8 MPH (7 KT):0
Visibility: greater than 7 mile(s):0
Sky conditions: mostly cloudy
Weather: light rain
Temperature: 48 F (9 C)
Dew Point: 46 F (8 C)
Relative Humidity: 93%
Pressure (altimeter): 30.18 in. Hg (1022 hPa)
ob: EGKB 212120Z 33007KT 9999 -RA BKN010 09/08 Q1022
cycle: 21

Station Type Date Time Source
EGKB TAF 2019/07/13 18:09 UTC NOAA

TAF EGKB 131706Z 1318/1422 03009KT 9999 SCT040 PROB30
TEMPO 1318/1320 8000 -SHRA

Example: see airport list